Brownsville, Wisconsin
Current Conditions -  °F | °C
As of 1:53 AM on Thursday 18 Dec 2014 (Local Time) from KFLD Reporting Station
Overcast Overcast  
Wind Chill: 23°   Ceiling: 2000
Heat Index: 23°   Visibility: 10mi
Dew Point: 16°   Wind: 0mph
Humidity: 74%   Direction: NA
Pressure: 30.27"   Gusts: NA
Location:  43.62°N, 88.49°W
Report Text: KFLD 180753Z AUTO 00000KT 10SM OVC020 M05/M09 A3027 RMK AO2 SLP262 T10501089
Loading
Personal Weather Stations






























Interactive Weather Map New forecast layout! Learn more

10-Day Weather Forecast

Advertisements
Track Severe Weather on mobile